Pourquoi Pas — FMCY — position and weather

sailwx.info

Track history (hours):
 
Tides and Currents Weather Stations Pressure Air Temp Water Temp Dewpoint Dewpoint Depression Visibility Wind Speed Wind Dir Waves Ship Positions

Oceanographic research ship Pourquoi Pas (France)

Last reported at 2020-Jan-07 12:01 UTC. Time now 2020-Jan-22 08:10 UTC.
Position N 43°27' W 003°49'.
Warning: this ship's position is 14 days out of date.

Length 108 m; beam 20 m.

Type: Dredging. MMSI: 228207600.

Date/timePositionNaut miles runAvg speedWind from/ knotsBaromVisibWave heightAir tempDewpointWater temp
2020-Jan-07 12:01N 43°27' W 003°49'4 5.3
2020-Jan-07 11:20N 43°29' W 003°45'3 3.6
2020-Jan-07 10:30N 43°32' W 003°47'5 5.5
2020-Jan-07 09:30N 43°37' W 003°49'2113.8
2020-Jan-07 08:00N 43°57' W 003°59'212 9.4
2020-Jan-06 09:30N 47°06' W 006°14'810.2
2020-Jan-06 08:43N 46°60' W 006°20'1310.0
2020-Jan-06 07:26N 46°49' W 006°31'15 3.9
2020-Jan-06 03:35N 47°01' W 006°18'9510.5
2020-Jan-05 18:30N 48°16' W 004°50'10 2.8
2020-Jan-05 15:00N 48°18' W 004°36'7 3.5
2020-Jan-05 13:00N 48°23' W 004°29'0 0.0
2020-Jan-05 12:00N 48°23' W 004°29'0 0.0
2020-Jan-05 10:30N 48°23' W 004°29'0 0.0
2020-Jan-05 09:30N 48°23' W 004°29'0 0.0
2020-Jan-05 09:00N 48°23' W 004°29'0 0.0
2020-Jan-05 08:30N 48°23' W 004°29'0 0.0
2020-Jan-05 07:28N 48°23' W 004°29'0 0.0
2020-Jan-05 06:58N 48°23' W 004°29'0 0.0
2020-Jan-05 05:58N 48°23' W 004°29'0 0.0
2020-Jan-05 05:28N 48°23' W 004°29'0 0.0
2020-Jan-04 22:28N 48°23' W 004°29'0 0.0
2020-Jan-04 20:58N 48°23' W 004°29'0 0.0
2020-Jan-04 20:28N 48°23' W 004°29'0 0.0
2020-Jan-04 19:28N 48°23' W 004°29'0 0.0
2020-Jan-04 16:58N 48°23' W 004°29'0 0.0
2020-Jan-04 15:58N 48°23' W 004°29'0 0.0
2020-Jan-04 15:28N 48°23' W 004°29'0 0.0
2020-Jan-04 14:58N 48°23' W 004°29'0 0.0
2020-Jan-04 13:58N 48°23' W 004°29'0 0.0
2020-Jan-04 09:58N 48°23' W 004°29'0 0.0
2020-Jan-04 08:28N 48°23' W 004°29'0 0.0
2020-Jan-04 07:58N 48°23' W 004°29'0 0.0
2020-Jan-04 06:55N 48°23' W 004°29'0 0.0
2020-Jan-04 06:28N 48°23' W 004°29'0 0.0
2020-Jan-04 04:58N 48°23' W 004°29'0 0.0
2020-Jan-04 04:28N 48°23' W 004°29'0 0.0
2020-Jan-04 02:58N 48°23' W 004°29'0 0.0
2020-Jan-03 20:58N 48°23' W 004°29'0 0.0
2020-Jan-03 18:58N 48°23' W 004°29'0 0.0
2020-Jan-03 13:28N 48°23' W 004°29'0 0.0
2020-Jan-03 12:28N 48°23' W 004°29'0 0.0
2020-Jan-03 11:58N 48°23' W 004°29'0 0.0
2020-Jan-03 10:28N 48°23' W 004°29'0 0.0
2020-Jan-03 08:58N 48°23' W 004°29'0 0.0
2020-Jan-03 07:28N 48°23' W 004°29'0 0.0
2020-Jan-03 06:58N 48°23' W 004°29'0 0.0
2020-Jan-03 05:28N 48°23' W 004°29'0 0.0
2020-Jan-03 03:58N 48°23' W 004°29'0 0.0
2020-Jan-03 02:28N 48°23' W 004°29'0 0.0
2020-Jan-02 23:58N 48°23' W 004°29'0 0.0
2020-Jan-02 21:28N 48°23' W 004°29'0 0.0
2020-Jan-02 20:58N 48°23' W 004°29'0 0.0
2020-Jan-02 19:58N 48°23' W 004°29'0 0.0
2020-Jan-02 15:58N 48°23' W 004°29'0 0.0
2020-Jan-02 14:28N 48°23' W 004°29'0 0.0
2020-Jan-02 13:58N 48°23' W 004°29'0 0.0
2020-Jan-02 10:28N 48°23' W 004°29'0 0.0
2020-Jan-02 07:58N 48°23' W 004°29'0 0.0
2020-Jan-02 07:28N 48°23' W 004°29'0 0.0
2020-Jan-02 05:31N 48°23' W 004°29'0 0.0
2020-Jan-02 00:30N 48°23' W 004°29'0 0.0
2020-Jan-01 21:00N 48°23' W 004°29'0 0.0
2020-Jan-01 19:30N 48°23' W 004°29'0 0.0
2020-Jan-01 18:30N 48°23' W 004°29'0 0.0
2020-Jan-01 18:00N 48°23' W 004°29'0 0.0
2020-Jan-01 15:00N 48°23' W 004°29'0 0.0
2020-Jan-01 13:00N 48°23' W 004°29'0 0.0
2020-Jan-01 12:00N 48°23' W 004°29'0 0.0
2020-Jan-01 11:30N 48°23' W 004°29'0 0.0
2020-Jan-01 10:00N 48°23' W 004°29'0 0.0
2020-Jan-01 08:30N 48°23' W 004°29'0 0.0
2020-Jan-01 07:30N 48°23' W 004°29'0 0.0
2020-Jan-01 06:00N 48°23' W 004°29'0 0.0
2020-Jan-01 03:30N 48°23' W 004°29'0 0.0
2020-Jan-01 02:30N 48°23' W 004°29'0 0.0
2020-Jan-01 01:30N 48°23' W 004°29'0 0.0
2019-Dec-31 23:30N 48°23' W 004°29'0 0.0
2019-Dec-31 22:00N 48°23' W 004°29'0 0.0
2019-Dec-31 21:00N 48°23' W 004°29'0 0.0
2019-Dec-31 20:30N 48°23' W 004°29'0 0.0
2019-Dec-31 19:00N 48°23' W 004°29'0 0.0
2019-Dec-31 18:00N 48°23' W 004°29'0 0.0
2019-Dec-31 17:30N 48°23' W 004°29'0 0.0
2019-Dec-31 15:30N 48°23' W 004°29'0 0.0
2019-Dec-31 14:30N 48°23' W 004°29'0 0.0
2019-Dec-31 14:00N 48°23' W 004°29'0 0.0
2019-Dec-31 12:30N 48°23' W 004°29'0 0.0
2019-Dec-31 11:30N 48°23' W 004°29'0 0.0
2019-Dec-31 08:00N 48°23' W 004°29'0 0.0
2019-Dec-31 07:30N 48°23' W 004°29'0 0.0
2019-Dec-31 07:00N 48°23' W 004°29'0 0.0
2019-Dec-31 06:30N 48°23' W 004°29'0 0.0
2019-Dec-31 06:00N 48°23' W 004°29'0 0.0
2019-Dec-31 05:30N 48°23' W 004°29'0 0.0
2019-Dec-31 05:00N 48°23' W 004°29'0 0.0
2019-Dec-31 04:30N 48°23' W 004°29'0 0.0
2019-Dec-31 03:00N 48°23' W 004°29'0 0.0
2019-Dec-31 01:00N 48°23' W 004°29'0 0.0
2019-Dec-30 22:00N 48°23' W 004°29'0 0.0
2019-Dec-30 20:00N 48°23' W 004°29'0 0.0
2019-Dec-30 18:00N 48°23' W 004°29'0 0.0
2019-Dec-30 16:00N 48°23' W 004°29'0 0.0
2019-Dec-30 12:00N 48°23' W 004°29'0 0.0
2019-Dec-30 10:30N 48°23' W 004°29'0 0.0
2019-Dec-30 07:00N 48°23' W 004°29'0 0.0
2019-Dec-30 05:30N 48°23' W 004°29'0 0.0
2019-Dec-30 05:00N 48°23' W 004°29'0 0.0
2019-Dec-30 03:30N 48°23' W 004°29'0 0.0
2019-Dec-30 02:00N 48°23' W 004°29'0 0.0
2019-Dec-29 23:00N 48°23' W 004°29'0 0.0
2019-Dec-29 19:30N 48°23' W 004°29'0 0.0
2019-Dec-29 18:27N 48°23' W 004°29'0 0.0
2019-Dec-29 08:00N 48°23' W 004°29'0 0.0
2019-Dec-29 03:00N 48°23' W 004°29'0 0.0
2019-Dec-29 02:30N 48°23' W 004°29'0 0.0
2019-Dec-29 01:00N 48°23' W 004°29'0 0.0
2019-Dec-29 00:27N 48°23' W 004°29'0 0.0
2019-Dec-28 23:30N 48°23' W 004°29'0 0.0
2019-Dec-28 22:30N 48°23' W 004°29'0 0.0
2019-Dec-28 20:00N 48°23' W 004°29'0 0.0
2019-Dec-28 18:30N 48°23' W 004°29'0 0.0
2019-Dec-28 18:00N 48°23' W 004°29'0 0.0
2019-Dec-28 17:30N 48°23' W 004°29'0 0.0
2019-Dec-28 16:30N 48°23' W 004°29'0 0.0
2019-Dec-28 16:00N 48°23' W 004°29'0 0.0
2019-Dec-28 15:00N 48°23' W 004°29'0 0.0
2019-Dec-28 13:00N 48°23' W 004°29'  
Track history (hours):
 
Tides and Currents Weather Stations Pressure Air Temp Water Temp Dewpoint Dewpoint Depression Visibility Wind Speed Wind Dir Waves Ship Positions

Oceanographic research ship Pourquoi Pas (France)

Last reported at 2020-Jan-07 12:01 UTC. Time now 2020-Jan-22 08:10 UTC.
Position N 43°27' W 003°49'.
Warning: this ship's position is 14 days out of date.

Length 108 m; beam 20 m.

Type: Dredging. MMSI: 228207600.

Date/timePositionNaut miles runAvg speedWind from/ knotsBaromVisibWave heightAir tempDewpointWater temp
2020-Jan-07 12:01N 43°27' W 003°49'4 5.3
2020-Jan-07 11:20N 43°29' W 003°45'3 3.6
2020-Jan-07 10:30N 43°32' W 003°47'5 5.5
2020-Jan-07 09:30N 43°37' W 003°49'2113.8
2020-Jan-07 08:00N 43°57' W 003°59'212 9.4
2020-Jan-06 09:30N 47°06' W 006°14'810.2
2020-Jan-06 08:43N 46°60' W 006°20'1310.0
2020-Jan-06 07:26N 46°49' W 006°31'15 3.9
2020-Jan-06 03:35N 47°01' W 006°18'9510.5
2020-Jan-05 18:30N 48°16' W 004°50'10 2.8
2020-Jan-05 15:00N 48°18' W 004°36'7 3.5
2020-Jan-05 13:00N 48°23' W 004°29'0 0.0
2020-Jan-05 12:00N 48°23' W 004°29'0 0.0
2020-Jan-05 10:30N 48°23' W 004°29'0 0.0
2020-Jan-05 09:30N 48°23' W 004°29'0 0.0
2020-Jan-05 09:00N 48°23' W 004°29'0 0.0
2020-Jan-05 08:30N 48°23' W 004°29'0 0.0
2020-Jan-05 07:28N 48°23' W 004°29'0 0.0
2020-Jan-05 06:58N 48°23' W 004°29'0 0.0
2020-Jan-05 05:58N 48°23' W 004°29'0 0.0
2020-Jan-05 05:28N 48°23' W 004°29'0 0.0
2020-Jan-04 22:28N 48°23' W 004°29'0 0.0
2020-Jan-04 20:58N 48°23' W 004°29'0 0.0
2020-Jan-04 20:28N 48°23' W 004°29'0 0.0
2020-Jan-04 19:28N 48°23' W 004°29'0 0.0
2020-Jan-04 16:58N 48°23' W 004°29'0 0.0
2020-Jan-04 15:58N 48°23' W 004°29'0 0.0
2020-Jan-04 15:28N 48°23' W 004°29'0 0.0
2020-Jan-04 14:58N 48°23' W 004°29'0 0.0
2020-Jan-04 13:58N 48°23' W 004°29'0 0.0
2020-Jan-04 09:58N 48°23' W 004°29'0 0.0
2020-Jan-04 08:28N 48°23' W 004°29'0 0.0
2020-Jan-04 07:58N 48°23' W 004°29'0 0.0
2020-Jan-04 06:55N 48°23' W 004°29'0 0.0
2020-Jan-04 06:28N 48°23' W 004°29'0 0.0
2020-Jan-04 04:58N 48°23' W 004°29'0 0.0
2020-Jan-04 04:28N 48°23' W 004°29'0 0.0
2020-Jan-04 02:58N 48°23' W 004°29'0 0.0
2020-Jan-03 20:58N 48°23' W 004°29'0 0.0
2020-Jan-03 18:58N 48°23' W 004°29'0 0.0
2020-Jan-03 13:28N 48°23' W 004°29'0 0.0
2020-Jan-03 12:28N 48°23' W 004°29'0 0.0
2020-Jan-03 11:58N 48°23' W 004°29'0 0.0
2020-Jan-03 10:28N 48°23' W 004°29'0 0.0
2020-Jan-03 08:58N 48°23' W 004°29'0 0.0
2020-Jan-03 07:28N 48°23' W 004°29'0 0.0
2020-Jan-03 06:58N 48°23' W 004°29'0 0.0
2020-Jan-03 05:28N 48°23' W 004°29'0 0.0
2020-Jan-03 03:58N 48°23' W 004°29'0 0.0
2020-Jan-03 02:28N 48°23' W 004°29'0 0.0
2020-Jan-02 23:58N 48°23' W 004°29'0 0.0
2020-Jan-02 21:28N 48°23' W 004°29'0 0.0
2020-Jan-02 20:58N 48°23' W 004°29'0 0.0
2020-Jan-02 19:58N 48°23' W 004°29'0 0.0
2020-Jan-02 15:58N 48°23' W 004°29'0 0.0
2020-Jan-02 14:28N 48°23' W 004°29'0 0.0
2020-Jan-02 13:58N 48°23' W 004°29'0 0.0
2020-Jan-02 10:28N 48°23' W 004°29'0 0.0
2020-Jan-02 07:58N 48°23' W 004°29'0 0.0
2020-Jan-02 07:28N 48°23' W 004°29'0 0.0
2020-Jan-02 05:31N 48°23' W 004°29'0 0.0
2020-Jan-02 00:30N 48°23' W 004°29'0 0.0
2020-Jan-01 21:00N 48°23' W 004°29'0 0.0
2020-Jan-01 19:30N 48°23' W 004°29'0 0.0
2020-Jan-01 18:30N 48°23' W 004°29'0 0.0
2020-Jan-01 18:00N 48°23' W 004°29'0 0.0
2020-Jan-01 15:00N 48°23' W 004°29'0 0.0
2020-Jan-01 13:00N 48°23' W 004°29'0 0.0
2020-Jan-01 12:00N 48°23' W 004°29'0 0.0
2020-Jan-01 11:30N 48°23' W 004°29'0 0.0
2020-Jan-01 10:00N 48°23' W 004°29'0 0.0
2020-Jan-01 08:30N 48°23' W 004°29'0 0.0
2020-Jan-01 07:30N 48°23' W 004°29'0 0.0
2020-Jan-01 06:00N 48°23' W 004°29'0 0.0
2020-Jan-01 03:30N 48°23' W 004°29'0 0.0
2020-Jan-01 02:30N 48°23' W 004°29'0 0.0
2020-Jan-01 01:30N 48°23' W 004°29'0 0.0
2019-Dec-31 23:30N 48°23' W 004°29'0 0.0
2019-Dec-31 22:00N 48°23' W 004°29'0 0.0
2019-Dec-31 21:00N 48°23' W 004°29'0 0.0
2019-Dec-31 20:30N 48°23' W 004°29'0 0.0
2019-Dec-31 19:00N 48°23' W 004°29'0 0.0
2019-Dec-31 18:00N 48°23' W 004°29'0 0.0
2019-Dec-31 17:30N 48°23' W 004°29'0 0.0
2019-Dec-31 15:30N 48°23' W 004°29'0 0.0
2019-Dec-31 14:30N 48°23' W 004°29'0 0.0
2019-Dec-31 14:00N 48°23' W 004°29'0 0.0
2019-Dec-31 12:30N 48°23' W 004°29'0 0.0
2019-Dec-31 11:30N 48°23' W 004°29'0 0.0
2019-Dec-31 08:00N 48°23' W 004°29'0 0.0
2019-Dec-31 07:30N 48°23' W 004°29'0 0.0
2019-Dec-31 07:00N 48°23' W 004°29'0 0.0
2019-Dec-31 06:30N 48°23' W 004°29'0 0.0
2019-Dec-31 06:00N 48°23' W 004°29'0 0.0
2019-Dec-31 05:30N 48°23' W 004°29'0 0.0
2019-Dec-31 05:00N 48°23' W 004°29'0 0.0
2019-Dec-31 04:30N 48°23' W 004°29'0 0.0
2019-Dec-31 03:00N 48°23' W 004°29'0 0.0
2019-Dec-31 01:00N 48°23' W 004°29'0 0.0
2019-Dec-30 22:00N 48°23' W 004°29'0 0.0
2019-Dec-30 20:00N 48°23' W 004°29'0 0.0
2019-Dec-30 18:00N 48°23' W 004°29'0 0.0
2019-Dec-30 16:00N 48°23' W 004°29'0 0.0
2019-Dec-30 12:00N 48°23' W 004°29'0 0.0
2019-Dec-30 10:30N 48°23' W 004°29'0 0.0
2019-Dec-30 07:00N 48°23' W 004°29'0 0.0
2019-Dec-30 05:30N 48°23' W 004°29'0 0.0
2019-Dec-30 05:00N 48°23' W 004°29'0 0.0
2019-Dec-30 03:30N 48°23' W 004°29'0 0.0
2019-Dec-30 02:00N 48°23' W 004°29'0 0.0
2019-Dec-29 23:00N 48°23' W 004°29'0 0.0
2019-Dec-29 19:30N 48°23' W 004°29'0 0.0
2019-Dec-29 18:27N 48°23' W 004°29'0 0.0
2019-Dec-29 08:00N 48°23' W 004°29'0 0.0
2019-Dec-29 03:00N 48°23' W 004°29'0 0.0
2019-Dec-29 02:30N 48°23' W 004°29'0 0.0
2019-Dec-29 01:00N 48°23' W 004°29'0 0.0
2019-Dec-29 00:27N 48°23' W 004°29'0 0.0
2019-Dec-28 23:30N 48°23' W 004°29'0 0.0
2019-Dec-28 22:30N 48°23' W 004°29'0 0.0
2019-Dec-28 20:00N 48°23' W 004°29'0 0.0
2019-Dec-28 18:30N 48°23' W 004°29'0 0.0
2019-Dec-28 18:00N 48°23' W 004°29'0 0.0
2019-Dec-28 17:30N 48°23' W 004°29'0 0.0
2019-Dec-28 16:30N 48°23' W 004°29'0 0.0
2019-Dec-28 16:00N 48°23' W 004°29'0 0.0
2019-Dec-28 15:00N 48°23' W 004°29'0 0.0
2019-Dec-28 13:00N 48°23' W 004°29'  

Dump ship's entire track history